Time;durP1;ratioP1;P1;durP2;ratioP2;P2;SDS_P1;SDS_P2;PMS_P1;PMS_P2;Temp;Humidity;BMP_temperature;BMP_pressure;BME280_temperature;BME280_humidity;BME280_pressure;Samples;Min_cycle;Max_cycle;Signal;HPM_P1;HPM_P2
2022/01/07 00:00:39;;;;;;;6.05;2.33;;;;;;;18.21;44.73;101368.22;5035176;28;20377;-62
2022/01/07 00:03:05;;;;;;;7.13;2.42;;;;;;;18.20;44.71;101368.34;5034683;28;20025;-63
2022/01/07 00:05:31;;;;;;;7.50;2.38;;;;;;;18.18;44.53;101365.81;5035217;28;20112;-63
2022/01/07 00:07:56;;;;;;;7.00;2.53;;;;;;;18.17;44.52;101358.03;5034592;28;20479;-63
2022/01/07 00:10:28;;;;;;;7.50;2.33;;;;;;;18.13;44.30;101352.13;5035129;28;20039;-63
2022/01/07 00:12:53;;;;;;;8.07;2.65;;;;;;;18.12;44.58;101355.72;5034818;28;20271;-63
2022/01/07 00:15:20;;;;;;;5.88;1.98;;;;;;;18.10;44.84;101352.34;5034444;28;20095;-63
2022/01/07 00:17:46;;;;;;;5.60;1.95;;;;;;;18.07;44.61;101348.16;5034903;28;20072;-63
2022/01/07 00:20:13;;;;;;;6.05;2.30;;;;;;;18.06;44.57;101349.09;5034994;28;20026;-63
2022/01/07 00:22:39;;;;;;;6.93;2.13;;;;;;;18.04;44.60;101329.91;5033962;28;20037;-63
2022/01/07 00:25:07;;;;;;;6.05;2.15;;;;;;;18.02;44.51;101330.97;5034891;28;20366;-63
2022/01/07 00:27:42;;;;;;;5.57;2.08;;;;;;;18.00;44.68;101325.81;5034198;28;20045;-63
2022/01/07 00:30:10;;;;;;;6.28;2.35;;;;;;;17.97;44.54;101325.19;5034302;28;20029;-63
2022/01/07 00:32:35;;;;;;;6.00;2.15;;;;;;;17.95;44.68;101326.13;5034583;28;20026;-64
2022/01/07 00:35:01;;;;;;;8.93;2.35;;;;;;;17.92;44.71;101323.72;5034780;28;20025;-63
2022/01/07 00:37:26;;;;;;;6.38;2.13;;;;;;;17.91;44.88;101315.91;5034025;28;20037;-63
2022/01/07 00:39:52;;;;;;;7.05;2.05;;;;;;;17.88;44.56;101306.47;5034177;28;20241;-63
2022/01/07 00:42:18;;;;;;;6.70;1.98;;;;;;;17.86;44.56;101299.56;5034309;28;20503;-63
2022/01/07 00:44:43;;;;;;;5.55;2.28;;;;;;;17.84;44.83;101297.03;5033603;28;20022;-63
2022/01/07 00:47:12;;;;;;;5.18;2.15;;;;;;;17.83;44.65;101287.47;5034640;28;20028;-63
2022/01/07 00:49:37;;;;;;;8.55;2.20;;;;;;;17.80;44.99;101289.47;5034167;28;20025;-63
2022/01/07 00:52:03;;;;;;;5.85;2.30;;;;;;;17.80;44.82;101284.19;5033662;28;20067;-63
2022/01/07 00:54:28;;;;;;;6.88;2.08;;;;;;;17.76;44.90;101276.50;5034300;28;20354;-63
2022/01/07 00:56:54;;;;;;;4.97;1.88;;;;;;;17.74;44.98;101267.03;5033912;28;20096;-63
2022/01/07 00:59:19;;;;;;;5.43;2.05;;;;;;;17.74;44.79;101274.94;5033669;28;20026;-64
2022/01/07 01:01:46;;;;;;;6.20;2.33;;;;;;;17.72;45.04;101267.16;5033982;28;20027;-64
2022/01/07 01:04:12;;;;;;;4.80;1.92;;;;;;;17.72;45.17;101268.94;5033411;28;20036;-64
2022/01/07 01:06:40;;;;;;;6.50;2.00;;;;;;;17.69;45.50;101259.47;5033816;28;20064;-62
2022/01/07 01:09:09;;;;;;;6.97;2.35;;;;;;;17.67;45.09;101257.88;5033977;28;20056;-64
2022/01/07 01:11:34;;;;;;;6.57;2.05;;;;;;;17.65;45.27;101251.88;5033166;28;20025;-63
2022/01/07 01:14:00;;;;;;;5.10;1.77;;;;;;;17.63;45.20;101245.91;5033986;28;20052;-63
2022/01/07 01:16:25;;;;;;;7.20;2.40;;;;;;;17.61;44.88;101243.38;5033987;28;20028;-63
2022/01/07 01:18:56;;;;;;;6.53;2.00;;;;;;;17.61;45.09;101240.75;5032948;28;20037;-62
2022/01/07 01:21:22;;;;;;;6.50;2.35;;;;;;;17.60;45.01;101246.94;5034012;28;20044;-62
2022/01/07 01:23:47;;;;;;;5.65;2.17;;;;;;;17.57;45.06;101229.56;5033407;28;20025;-63
2022/01/07 01:26:13;;;;;;;6.15;2.10;;;;;;;17.56;45.25;101233.16;5033045;28;20045;-63
2022/01/07 01:28:39;;;;;;;7.15;2.03;;;;;;;17.52;45.13;101228.22;5033173;28;20041;-63
2022/01/07 01:31:05;;;;;;;8.68;2.08;;;;;;;17.53;44.96;101235.16;5033807;28;20018;-64
2022/01/07 01:33:33;;;;;;;6.47;1.90;;;;;;;17.52;45.05;101213.25;5032642;28;20076;-63
2022/01/07 01:35:58;;;;;;;5.03;2.05;;;;;;;17.55;44.67;101212.19;5033500;28;20029;-64
2022/01/07 01:38:27;;;;;;;6.28;1.77;;;;;;;17.58;44.41;101219.88;5033475;28;20091;-64
2022/01/07 01:40:52;;;;;;;5.15;1.80;;;;;;;17.61;44.27;101214.38;5032669;28;20025;-63
2022/01/07 01:43:17;;;;;;;6.07;2.13;;;;;;;17.64;44.39;101211.53;5033556;28;20526;-63
2022/01/07 01:45:43;;;;;;;7.72;2.00;;;;;;;17.67;44.16;101208.63;5033437;28;20037;-64
2022/01/07 01:48:08;;;;;;;5.53;1.80;;;;;;;17.70;44.05;101197.03;5032666;28;20560;-64
2022/01/07 01:50:33;;;;;;;6.95;1.80;;;;;;;17.70;43.88;101195.22;5033144;28;20033;-63
2022/01/07 01:52:58;;;;;;;5.27;2.07;;;;;;;17.73;43.79;101189.72;5032599;28;20052;-63
2022/01/07 01:55:26;;;;;;;4.90;1.75;;;;;;;17.73;43.64;101176.56;5032710;28;20287;-63
2022/01/07 01:57:52;;;;;;;7.75;2.00;;;;;;;17.74;43.87;101175.59;5032935;28;20026;-63
2022/01/07 02:00:20;;;;;;;5.80;2.05;;;;;;;17.75;43.81;101182.56;5033261;28;20037;-63
2022/01/07 02:02:45;;;;;;;4.43;1.60;;;;;;;17.75;43.58;101174.66;5032124;28;20021;-63
2022/01/07 02:05:11;;;;;;;4.75;1.50;;;;;;;17.76;43.60;101175.50;5033201;28;20044;-64
2022/01/07 02:07:38;;;;;;;6.60;2.60;;;;;;;17.76;43.54;101176.31;5032095;28;20489;-63
2022/01/07 02:10:05;;;;;;;5.53;1.70;;;;;;;17.75;43.45;101164.13;5033490;28;20017;-63
2022/01/07 02:12:31;;;;;;;6.32;2.08;;;;;;;17.75;43.45;101163.25;5032821;28;20035;-63
2022/01/07 02:14:56;;;;;;;5.80;1.52;;;;;;;17.74;43.39;101167.69;5032262;28;20033;-63
2022/01/07 02:17:23;;;;;;;6.65;1.90;;;;;;;17.73;43.45;101159.91;5032962;28;20442;-64
2022/01/07 02:19:49;;;;;;;5.82;1.88;;;;;;;17.73;43.34;101170.44;5032692;28;20034;-63
2022/01/07 02:22:17;;;;;;;4.68;1.48;;;;;;;17.72;43.24;101169.63;5032016;28;20062;-63
2022/01/07 02:24:43;;;;;;;4.47;1.70;;;;;;;17.71;43.68;101161.81;5032755;28;20030;-63
2022/01/07 02:27:10;;;;;;;5.38;1.88;;;;;;;17.70;43.11;101163.59;5032710;28;20049;-63
2022/01/07 02:29:36;;;;;;;5.05;1.63;;;;;;;17.68;43.17;101154.16;5031768;28;20102;-63
2022/01/07 02:32:07;;;;;;;4.80;1.70;;;;;;;17.69;43.06;101156.66;5032650;28;20525;-63
2022/01/07 02:34:32;;;;;;;5.50;1.80;;;;;;;17.72;42.93;101143.25;5032338;28;20034;-63
2022/01/07 02:36:58;;;;;;;5.47;1.83;;;;;;;17.72;43.18;101148.53;5032100;28;20034;-63
2022/01/07 02:39:23;;;;;;;4.70;1.60;;;;;;;17.73;42.94;101152.81;5032693;28;20485;-62
2022/01/07 02:41:51;;;;;;;4.97;1.73;;;;;;;17.73;43.14;101147.56;5032296;28;20049;-63
2022/01/07 02:44:16;;;;;;;6.07;1.70;;;;;;;17.76;42.91;101138.59;5031987;28;20282;-63
2022/01/07 02:46:42;;;;;;;4.65;1.60;;;;;;;17.76;43.05;101141.22;5032421;28;20382;-64
2022/01/07 02:49:13;;;;;;;6.63;2.00;;;;;;;17.76;43.40;101141.22;5032552;28;20030;-63
2022/01/07 02:51:41;;;;;;;4.97;1.63;;;;;;;17.76;43.34;101143.88;5031572;28;20492;-62
2022/01/07 02:54:07;;;;;;;6.22;1.60;;;;;;;17.76;43.20;101136.78;5032685;28;20045;-63
2022/01/07 02:56:34;;;;;;;6.50;2.25;;;;;;;17.76;42.98;101142.06;5032318;28;20109;-63
2022/01/07 02:58:59;;;;;;;5.13;1.58;;;;;;;17.72;43.40;101129.22;5031900;28;20108;-63
2022/01/07 03:01:25;;;;;;;4.55;1.67;;;;;;;17.75;43.62;101132.50;5032616;28;20104;-63
2022/01/07 03:03:50;;;;;;;3.30;1.30;;;;;;;17.75;43.46;101132.50;5032907;28;20422;-63
2022/01/07 03:06:15;;;;;;;4.70;1.52;;;;;;;17.75;43.11;101131.63;5036620;28;20029;-63
2022/01/07 03:08:46;;;;;;;6.72;2.10;;;;;;;17.76;43.71;101125.41;5036294;28;20147;-63
2022/01/07 03:11:11;;;;;;;4.10;1.40;;;;;;;17.76;43.64;101125.41;5036048;28;20041;-64
2022/01/07 03:13:36;;;;;;;5.10;1.70;;;;;;;17.77;43.57;101117.38;5036109;28;20358;-64
2022/01/07 03:16:11;;;;;;;4.93;1.77;;;;;;;17.78;43.45;101120.84;5036380;28;20361;-64
2022/01/07 03:18:36;;;;;;;4.57;1.30;;;;;;;17.79;43.47;101101.47;5035323;28;20267;-64
2022/01/07 03:21:03;;;;;;;5.53;1.48;;;;;;;17.81;43.31;101096.06;5036392;28;20470;-63
2022/01/07 03:23:29;;;;;;;4.70;1.63;;;;;;;17.81;43.51;101101.34;5036371;28;20127;-65
2022/01/07 03:25:54;;;;;;;7.05;1.98;;;;;;;17.81;43.63;101093.44;5035276;28;20481;-65
2022/01/07 03:28:20;;;;;;;7.33;1.90;;;;;;;17.81;43.57;101082.88;5036274;28;20030;-65
2022/01/07 03:30:48;;;;;;;5.00;1.58;;;;;;;17.79;43.18;101085.63;5035856;28;20608;-65
2022/01/07 03:33:14;;;;;;;4.90;1.67;;;;;;;17.81;43.42;101088.16;5035279;28;20040;-64
2022/01/07 03:35:40;;;;;;;4.10;1.30;;;;;;;17.83;43.97;101088.88;5035934;28;20116;-65
2022/01/07 03:38:08;;;;;;;4.60;1.67;;;;;;;17.83;43.91;101081.81;5036038;28;20033;-64
2022/01/07 03:40:54;;;;;;;5.90;1.50;;;;;;;17.84;43.78;101094.03;5035242;28;20041;-64
2022/01/07 03:43:23;;;;;;;5.10;1.70;;;;;;;17.85;44.01;101085.16;5024205;28;20112;-65
2022/01/07 03:45:48;;;;;;;5.88;1.80;;;;;;;17.86;43.87;101092.09;5035491;28;20026;-63
2022/01/07 03:48:16;;;;;;;6.47;1.95;;;;;;;17.87;43.83;101082.41;5035004;28;20028;-64
2022/01/07 03:50:41;;;;;;;6.90;1.65;;;;;;;17.86;43.61;101073.66;5035417;28;20029;-65
2022/01/07 03:53:07;;;;;;;5.70;1.50;;;;;;;17.86;43.69;101076.28;5035022;28;20539;-64
2022/01/07 03:55:33;;;;;;;6.07;1.77;;;;;;;17.86;43.51;101073.66;5035244;28;20488;-63
2022/01/07 03:57:59;;;;;;;4.38;1.38;;;;;;;17.85;43.00;101076.41;5035491;28;20121;-63
2022/01/07 04:00:32;;;;;;;5.93;1.73;;;;;;;17.86;43.26;101073.66;5034846;28;20026;-64
2022/01/07 04:03:18;;;;;;;3.93;1.40;;;;;;;17.85;43.47;101068.50;5035399;28;20469;-64
2022/01/07 04:05:44;;;;;;;4.65;1.50;;;;;;;17.84;43.47;101056.28;5034786;28;20041;-64
2022/01/07 04:08:15;;;;;;;4.50;1.38;;;;;;;17.84;43.71;101053.66;5034498;28;20083;-64
2022/01/07 04:10:41;;;;;;;5.18;1.67;;;;;;;17.85;44.12;101053.53;5035060;28;20037;-64
2022/01/07 04:13:06;;;;;;;4.10;1.45;;;;;;;17.87;43.72;101050.78;5035269;28;20017;-64
2022/01/07 04:15:32;;;;;;;3.92;1.30;;;;;;;17.87;44.18;101048.16;5033444;28;20112;-64
2022/01/07 04:17:57;;;;;;;4.40;1.60;;;;;;;17.88;43.86;101052.47;5035168;28;20025;-64
2022/01/07 04:20:29;;;;;;;6.55;1.67;;;;;;;17.89;43.87;101046.25;5034986;28;20113;-64
2022/01/07 04:22:55;;;;;;;5.10;1.50;;;;;;;17.85;43.64;101044.75;5034201;28;20041;-64
2022/01/07 04:25:21;;;;;;;5.20;1.30;;;;;;;17.88;43.50;101041.94;5034906;28;20102;-64
2022/01/07 04:27:50;;;;;;;4.40;1.45;;;;;;;17.88;43.44;101048.06;5034366;28;20120;-64
2022/01/07 04:30:16;;;;;;;4.25;1.20;;;;;;;17.87;43.37;101048.16;5034212;28;20028;-64
2022/01/07 04:32:42;;;;;;;4.10;1.45;;;;;;;17.87;43.51;101054.25;5034147;28;20374;-63
2022/01/07 04:35:10;;;;;;;3.47;1.30;;;;;;;17.87;43.56;101050.78;5033942;28;20155;-63
2022/01/07 04:37:35;;;;;;;6.05;1.50;;;;;;;17.88;43.76;101047.19;5034348;28;20037;-63
2022/01/07 04:40:02;;;;;;;5.43;1.50;;;;;;;17.89;44.08;101054.16;5034805;28;20489;-64
2022/01/07 04:42:28;;;;;;;3.83;1.45;;;;;;;17.88;43.99;101053.34;5033679;28;20045;-63
2022/01/07 04:44:53;;;;;;;4.33;1.83;;;;;;;17.90;43.95;101055.84;5034398;28;20033;-63
2022/01/07 04:47:18;;;;;;;4.43;1.30;;;;;;;17.90;44.28;101053.22;5034552;28;20275;-63
2022/01/07 04:49:43;;;;;;;5.27;1.57;;;;;;;17.90;44.15;101043.50;5033331;28;20365;-63
2022/01/07 04:52:09;;;;;;;4.97;1.52;;;;;;;17.92;43.84;101046.03;5034382;28;20289;-64
2022/01/07 04:54:34;;;;;;;5.80;1.40;;;;;;;17.91;43.90;101041.69;5034198;28;20124;-63
2022/01/07 04:56:59;;;;;;;4.20;1.50;;;;;;;17.90;44.09;101043.50;5033684;28;20056;-62
2022/01/07 04:59:25;;;;;;;6.20;1.80;;;;;;;17.90;44.02;101042.66;5034554;28;20045;-63
2022/01/07 05:01:50;;;;;;;3.90;1.33;;;;;;;17.89;43.99;101039.16;5033969;28;20393;-63
2022/01/07 05:04:16;;;;;;;6.13;1.52;;;;;;;17.89;44.08;101023.34;5033318;28;20061;-63
2022/01/07 05:06:44;;;;;;;5.90;1.60;;;;;;;17.90;44.20;101025.03;5033866;28;20030;-62
2022/01/07 05:09:12;;;;;;;5.10;1.33;;;;;;;17.90;44.37;101026.84;5034225;28;20275;-63
2022/01/07 05:11:37;;;;;;;5.00;1.48;;;;;;;17.91;44.25;101029.38;5033215;28;20033;-63
2022/01/07 05:14:02;;;;;;;5.03;1.33;;;;;;;17.91;44.41;101020.59;5034087;28;20044;-64
2022/01/07 05:16:28;;;;;;;5.13;1.60;;;;;;;17.91;44.56;101018.81;5034006;28;20115;-63
2022/01/07 05:18:54;;;;;;;4.53;1.38;;;;;;;17.92;44.26;101009.09;5032880;28;20267;-63
2022/01/07 05:21:19;;;;;;;3.95;1.40;;;;;;;17.91;44.06;101008.28;5033817;28;20040;-63
2022/01/07 05:23:45;;;;;;;4.37;1.53;;;;;;;17.91;44.17;101010.06;5033565;28;20034;-64
2022/01/07 05:26:10;;;;;;;5.27;1.80;;;;;;;17.91;43.95;101017.97;5032640;28;20365;-64
2022/01/07 05:28:35;;;;;;;4.40;1.40;;;;;;;17.90;43.72;101013.66;5032966;28;20306;-63
2022/01/07 05:31:02;;;;;;;3.23;1.40;;;;;;;17.90;44.55;101014.50;5033737;28;20393;-63
2022/01/07 05:33:28;;;;;;;4.00;1.30;;;;;;;17.92;44.59;101019.66;5032950;28;20270;-63
2022/01/07 05:35:53;;;;;;;3.78;1.30;;;;;;;17.92;44.80;101014.38;5033178;28;20033;-62
2022/01/07 05:38:18;;;;;;;4.97;1.30;;;;;;;17.91;44.90;101010.06;5033692;28;20025;-62
2022/01/07 05:40:43;;;;;;;6.97;1.60;;;;;;;17.93;44.95;101008.16;5032627;28;20540;-64
2022/01/07 05:43:09;;;;;;;4.77;1.50;;;;;;;17.94;44.67;101004.53;5033593;28;20360;-64
2022/01/07 05:45:34;;;;;;;4.47;1.60;;;;;;;17.94;44.89;101004.53;5032384;28;20274;-63
2022/01/07 05:47:59;;;;;;;4.15;1.35;;;;;;;17.94;44.80;101008.03;5033464;28;20025;-63
2022/01/07 05:50:24;;;;;;;4.45;1.55;;;;;;;17.94;44.31;101012.44;5033068;28;20025;-63
2022/01/07 05:52:50;;;;;;;4.50;1.45;;;;;;;17.93;44.13;101008.16;5032440;28;20033;-63
2022/01/07 05:55:15;;;;;;;4.30;1.50;;;;;;;17.94;44.49;101004.53;5033150;28;20076;-65
2022/01/07 05:57:43;;;;;;;4.97;1.60;;;;;;;17.93;45.10;101002.88;5033044;28;20038;-64
2022/01/07 06:00:11;;;;;;;4.28;1.35;;;;;;;17.94;45.25;100999.28;5032580;28;20116;-64
2022/01/07 06:02:36;;;;;;;4.97;1.58;;;;;;;17.95;45.37;100998.31;5032908;28;20029;-64
2022/01/07 06:05:02;;;;;;;5.25;1.48;;;;;;;17.94;45.37;100994.84;5032941;28;20025;-64
2022/01/07 06:07:27;;;;;;;3.80;1.45;;;;;;;17.96;45.55;100989.47;5032429;28;20065;-64
2022/01/07 06:09:52;;;;;;;5.43;1.50;;;;;;;17.97;45.09;100998.19;5032904;28;20033;-64
2022/01/07 06:12:18;;;;;;;4.05;1.60;;;;;;;17.97;45.76;100996.41;5033006;28;20329;-64
2022/01/07 06:14:43;;;;;;;5.40;1.48;;;;;;;17.99;46.25;100997.13;5031794;28;20178;-64
2022/01/07 06:17:10;;;;;;;4.90;1.33;;;;;;;18.01;45.95;101000.47;5032944;28;20393;-64
2022/01/07 06:19:35;;;;;;;4.97;1.10;;;;;;;18.05;46.19;101006.34;5032343;28;20052;-62
2022/01/07 06:22:01;;;;;;;5.57;1.45;;;;;;;18.06;46.51;101008.03;5032212;28;20469;-62
2022/01/07 06:24:26;;;;;;;3.90;1.47;;;;;;;18.10;46.31;101012.09;5032898;28;20029;-62
2022/01/07 06:26:55;;;;;;;4.00;1.40;;;;;;;18.12;46.52;101012.84;5032265;28;20366;-63
2022/01/07 06:29:20;;;;;;;3.22;1.23;;;;;;;18.15;46.56;101009.09;5031975;28;20061;-62
2022/01/07 06:31:46;;;;;;;2.80;1.23;;;;;;;18.17;46.53;101009.84;5032414;28;20061;-63
2022/01/07 06:34:11;;;;;;;3.77;1.17;;;;;;;18.18;46.24;101012.31;5032475;28;20112;-63
2022/01/07 06:36:36;;;;;;;3.97;1.37;;;;;;;18.20;46.42;101009.56;5031764;28;20309;-65
2022/01/07 06:39:02;;;;;;;4.25;1.30;;;;;;;18.21;46.38;101014.72;5036223;28;20266;-63
2022/01/07 06:41:28;;;;;;;5.97;1.58;;;;;;;18.22;46.24;101003.22;5039276;28;20061;-64
2022/01/07 06:43:53;;;;;;;3.95;1.23;;;;;;;18.24;46.29;101008.38;5038482;28;20490;-64
2022/01/07 06:46:18;;;;;;;4.03;1.57;;;;;;;18.24;46.62;101011.84;5039208;28;20037;-63
2022/01/07 06:48:44;;;;;;;3.40;1.30;;;;;;;18.25;46.63;101008.25;5038650;28;20274;-63
2022/01/07 06:51:10;;;;;;;3.90;1.35;;;;;;;18.25;46.23;101008.25;5039122;28;20361;-63
2022/01/07 06:53:35;;;;;;;4.47;1.40;;;;;;;18.25;46.22;101007.44;5039002;28;20104;-62
2022/01/07 06:56:00;;;;;;;5.70;1.92;;;;;;;18.23;43.94;101002.28;5038570;28;20038;-64
2022/01/07 06:58:26;;;;;;;5.07;1.50;;;;;;;18.23;45.67;101011.97;5039185;28;20018;-64
2022/01/07 07:00:55;;;;;;;5.68;1.40;;;;;;;18.24;46.36;101011.00;5038742;28;20057;-65
2022/01/07 07:03:23;;;;;;;3.05;1.20;;;;;;;18.28;46.12;101007.19;5038571;28;20021;-63
2022/01/07 07:05:48;;;;;;;4.55;1.30;;;;;;;18.28;46.41;101002.75;5038803;28;20110;-63
2022/01/07 07:08:14;;;;;;;4.68;1.63;;;;;;;18.32;46.37;100992.78;5038853;28;20449;-64
2022/01/07 07:10:42;;;;;;;3.10;1.13;;;;;;;18.38;46.38;101005.47;5038020;28;20030;-63
2022/01/07 07:13:07;;;;;;;6.03;1.50;;;;;;;18.40;46.63;101006.19;5038973;28;20480;-68
2022/01/07 07:15:32;;;;;;;4.30;1.60;;;;;;;18.41;46.08;101013.16;5038558;28;20045;-65
2022/01/07 07:17:58;;;;;;;4.95;1.30;;;;;;;18.41;46.34;101007.03;5038027;28;20049;-63
2022/01/07 07:20:23;;;;;;;4.97;1.42;;;;;;;18.43;46.34;101010.38;5039057;28;20049;-64
2022/01/07 07:22:49;;;;;;;3.47;1.27;;;;;;;18.43;46.75;101005.94;5038628;28;20037;-63
2022/01/07 07:25:14;;;;;;;4.05;1.33;;;;;;;18.45;46.52;101006.69;5038180;28;20076;-63
2022/01/07 07:27:41;;;;;;;4.45;1.48;;;;;;;18.49;46.77;101016.00;5038334;28;20064;-62
2022/01/07 07:30:09;;;;;;;5.85;1.40;;;;;;;18.52;47.00;101011.44;5038779;28;20037;-64
2022/01/07 07:32:36;;;;;;;6.38;1.60;;;;;;;18.54;46.81;101009.53;5037548;28;20477;-63
2022/01/07 07:35:12;;;;;;;6.18;1.55;;;;;;;18.55;46.76;101003.28;5038730;28;20112;-64
2022/01/07 07:37:38;;;;;;;4.00;1.10;;;;;;;18.57;46.70;101014.56;5038608;28;20044;-67
2022/01/07 07:40:04;;;;;;;6.93;1.58;;;;;;;18.56;46.88;101012.88;5038222;28;20405;-65
2022/01/07 07:42:29;;;;;;;5.63;1.50;;;;;;;18.58;46.97;101008.31;5038499;28;20028;-66
2022/01/07 07:44:54;;;;;;;4.13;1.23;;;;;;;18.59;46.97;101008.19;5038614;28;20452;-64
2022/01/07 07:47:20;;;;;;;3.93;1.10;;;;;;;18.61;47.38;100998.38;5037747;28;20045;-65
2022/01/07 07:49:45;;;;;;;5.38;1.60;;;;;;;18.65;47.40;100991.84;5037082;28;20033;-68
2022/01/07 07:52:11;;;;;;;7.95;1.45;;;;;;;18.69;47.19;100992.44;5034610;28;20037;-68
2022/01/07 07:54:37;;;;;;;5.05;1.38;;;;;;;18.71;47.54;100993.19;5035137;28;20354;-66
2022/01/07 07:57:06;;;;;;;3.83;1.40;;;;;;;18.72;47.09;101008.03;5035418;28;20091;-73
2022/01/07 07:59:31;;;;;;;4.97;1.50;;;;;;;18.74;47.26;101008.78;5034413;28;20057;-66
2022/01/07 08:01:57;;;;;;;6.43;1.40;;;;;;;18.76;47.36;101019.22;5035269;28;20060;-66
2022/01/07 08:04:22;;;;;;;8.82;1.50;;;;;;;18.77;47.27;101015.59;5035521;28;20105;-67
2022/01/07 08:06:49;;;;;;;5.43;1.35;;;;;;;18.76;47.46;101012.13;5034447;28;20400;-67
2022/01/07 08:09:14;;;;;;;5.05;1.60;;;;;;;18.79;47.39;101019.78;5035511;28;20033;-68
2022/01/07 08:11:53;;;;;;;6.60;1.85;;;;;;;18.77;47.21;101003.25;5035142;28;20095;-66
2022/01/07 08:17:05;;;;;;;7.30;1.67;;;;;;;18.78;47.39;101004.06;5035700;28;20116;-67
2022/01/07 08:19:33;;;;;;;8.07;1.70;;;;;;;18.78;47.47;101004.06;5034855;28;20489;-66
2022/01/07 08:21:59;;;;;;;5.40;1.77;;;;;;;18.76;46.34;100990.16;5034598;28;20080;-67
2022/01/07 08:24:24;;;;;;;6.97;2.10;;;;;;;18.76;47.06;100993.63;5035552;28;20133;-66
2022/01/07 08:26:49;;;;;;;5.50;1.50;;;;;;;18.72;47.37;100976.34;5034760;28;20048;-67
2022/01/07 08:29:19;;;;;;;6.07;1.40;;;;;;;18.76;47.08;100983.06;5035173;28;20057;-67
2022/01/07 08:36:59;;;;;;;6.63;2.03;;;;;;;18.81;47.66;100980.88;5042689;28;20033;-66
2022/01/07 08:39:25;;;;;;;5.18;1.52;;;;;;;18.84;47.93;100990.41;5040343;28;20037;-66
2022/01/07 08:41:51;;;;;;;5.80;1.80;;;;;;;18.85;48.03;100990.28;5040246;28;20041;-66
2022/01/07 08:44:16;;;;;;;5.85;1.42;;;;;;;18.85;47.69;100987.63;5039435;28;20567;-67
2022/01/07 08:46:43;;;;;;;7.65;1.40;;;;;;;18.86;47.87;100988.47;5039874;28;20021;-67
2022/01/07 08:49:08;;;;;;;4.88;1.50;;;;;;;18.87;47.92;100995.44;5042231;28;20032;-67
2022/01/07 08:51:34;;;;;;;5.85;1.40;;;;;;;18.90;47.89;100994.31;5034410;28;20021;-67
2022/01/07 08:53:59;;;;;;;4.03;1.25;;;;;;;18.85;47.99;100992.91;5034539;28;20030;-67
2022/01/07 08:56:25;;;;;;;4.68;1.58;;;;;;;18.90;48.20;100996.97;5033826;28;20044;-65
2022/01/07 08:58:55;;;;;;;5.57;1.70;;;;;;;18.91;48.12;101007.41;5034152;28;20021;-67
2022/01/07 09:01:23;;;;;;;5.07;1.33;;;;;;;18.92;48.29;101006.44;5034380;28;20048;-67
2022/01/07 09:03:49;;;;;;;8.55;1.70;;;;;;;18.94;48.17;101008.97;5033294;28;20488;-67
2022/01/07 09:06:14;;;;;;;11.63;1.67;;;;;;;18.93;48.43;101002.00;5034122;28;20025;-67
2022/01/07 09:08:39;;;;;;;6.35;1.35;;;;;;;18.95;48.00;101005.38;5033944;28;20041;-68
2022/01/07 09:11:04;;;;;;;5.22;1.50;;;;;;;18.94;48.29;101006.31;5033249;28;20040;-67
2022/01/07 09:13:30;;;;;;;5.05;1.60;;;;;;;18.94;48.20;101004.50;5033811;28;20108;-66
2022/01/07 09:15:58;;;;;;;7.03;1.87;;;;;;;18.94;48.21;101001.88;5034248;28;20040;-66
2022/01/07 09:18:24;;;;;;;3.88;1.35;;;;;;;18.93;48.25;101002.84;5033370;28;20273;-66
2022/01/07 09:20:49;;;;;;;5.68;1.48;;;;;;;18.95;48.33;101005.38;5033501;28;20026;-74
2022/01/07 09:23:15;;;;;;;3.78;1.30;;;;;;;18.95;48.42;101006.19;5033691;28;20124;-65
2022/01/07 09:25:41;;;;;;;5.45;1.33;;;;;;;18.94;48.44;101004.50;5032727;28;20037;-64
2022/01/07 09:28:10;;;;;;;4.60;1.55;;;;;;;18.96;48.14;100993.81;5033407;28;20099;-64
2022/01/07 09:30:36;;;;;;;7.10;1.50;;;;;;;18.94;48.41;100998.41;5032693;28;20030;-64
2022/01/07 09:33:03;;;;;;;6.25;1.60;;;;;;;18.92;48.23;101003.81;5033546;28;20029;-64
2022/01/07 09:35:28;;;;;;;5.47;1.77;;;;;;;18.94;48.27;100993.13;5033283;28;20053;-64
2022/01/07 09:37:54;;;;;;;5.97;1.70;;;;;;;18.91;48.03;100986.28;5032348;28;20075;-66
2022/01/07 09:40:21;;;;;;;6.03;1.50;;;;;;;18.95;48.39;100994.81;5033612;28;20298;-66
2022/01/07 09:42:58;;;;;;;5.20;1.80;;;;;;;18.97;48.52;100992.88;5033368;28;20040;-66
2022/01/07 09:45:25;;;;;;;7.10;1.60;;;;;;;18.99;48.74;100990.94;5032626;28;20535;-65
2022/01/07 09:47:50;;;;;;;4.85;1.40;;;;;;;18.99;47.81;100990.94;5032809;28;20473;-67
2022/01/07 09:50:16;;;;;;;6.75;1.48;;;;;;;18.97;48.27;101001.63;5033199;28;20030;-67
2022/01/07 09:52:41;;;;;;;7.95;1.50;;;;;;;18.99;48.39;101001.50;5032278;28;20045;-68
2022/01/07 09:55:09;;;;;;;4.63;1.67;;;;;;;18.99;48.40;100988.28;5033230;28;20512;-67
2022/01/07 09:57:34;;;;;;;7.63;1.52;;;;;;;18.99;48.39;100996.22;5033045;28;20042;-67
2022/01/07 10:00:00;;;;;;;6.35;1.60;;;;;;;19.01;48.29;100986.38;5032404;28;20029;-67
2022/01/07 10:02:26;;;;;;;6.38;1.60;;;;;;;19.05;47.45;100990.44;5033952;28;20103;-69
2022/01/07 10:04:51;;;;;;;5.50;1.40;;;;;;;19.11;47.75;100984.63;5032657;28;20026;-68
2022/01/07 10:07:25;;;;;;;4.38;1.35;;;;;;;19.18;48.09;100990.25;5032353;28;20017;-68
2022/01/07 10:10:05;;;;;;;3.92;1.70;;;;;;;19.24;47.52;100987.09;5032713;28;20495;-68
2022/01/07 10:12:47;;;;;;;5.40;1.58;;;;;;;19.28;47.45;100985.88;5032766;28;20045;-68
2022/01/07 10:15:15;;;;;;;10.82;3.38;;;;;;;19.32;47.29;100981.16;5032857;28;20152;-68
2022/01/07 10:17:41;;;;;;;7.28;1.60;;;;;;;19.31;46.97;100977.69;5032921;28;20025;-67
2022/01/07 10:20:07;;;;;;;4.78;1.30;;;;;;;19.32;47.08;100981.16;5032387;28;20021;-67
2022/01/07 10:22:54;;;;;;;6.85;1.67;;;;;;;19.31;47.56;100976.84;5032412;28;20033;-67
2022/01/07 10:25:26;;;;;;;8.43;1.60;;;;;;;19.32;47.35;100978.53;5032904;28;20091;-67
2022/01/07 10:27:52;;;;;;;7.85;1.50;;;;;;;19.31;47.14;100975.06;5031694;28;20049;-68
2022/01/07 10:30:25;;;;;;;8.65;1.85;;;;;;;19.30;47.63;100970.72;5032834;28;20025;-67
2022/01/07 10:32:52;;;;;;;5.85;1.42;;;;;;;19.30;46.77;100967.25;5032641;28;20029;-67
2022/01/07 10:35:23;;;;;;;5.20;1.38;;;;;;;19.28;46.68;100959.47;5031912;28;20038;-66
2022/01/07 10:37:59;;;;;;;5.50;2.10;;;;;;;19.28;46.71;100962.09;5032505;28;20971;-66
2022/01/07 10:40:33;;;;;;;5.18;1.40;;;;;;;19.28;47.02;100970.03;5033214;28;20037;-67
2022/01/07 10:43:25;;;;;;;5.88;1.67;;;;;;;19.28;46.78;100955.97;5032140;28;20393;-66
2022/01/07 10:45:56;;;;;;;6.75;1.55;;;;;;;19.29;47.02;100958.47;5032608;28;20033;-67
2022/01/07 10:48:34;;;;;;;6.93;1.65;;;;;;;19.29;47.00;100947.06;5031945;28;20036;-67
2022/01/07 10:51:05;;;;;;;5.07;1.50;;;;;;;19.29;46.83;100947.06;5032737;28;20036;-67
2022/01/07 10:53:31;;;;;;;8.18;1.75;;;;;;;19.28;46.71;100951.53;5032450;28;20036;-68
2022/01/07 10:56:33;;;;;;;5.97;1.75;;;;;;;19.27;46.58;100952.50;5031986;28;20120;-67
2022/01/07 10:59:10;;;;;;;5.43;1.88;;;;;;;19.24;46.53;100950.09;5032526;28;20449;-66
2022/01/07 11:01:55;;;;;;;4.53;1.73;;;;;;;19.20;46.71;100949.53;5032175;28;20369;-66
2022/01/07 11:04:26;;;;;;;7.05;1.30;;;;;;;19.15;46.51;100937.66;5031913;28;20028;-66
2022/01/07 11:06:52;;;;;;;4.25;1.27;;;;;;;19.09;46.73;100935.53;5032163;28;20021;-66
2022/01/07 11:09:17;;;;;;;7.25;1.77;;;;;;;19.08;46.81;100947.91;5031463;28;20038;-66
2022/01/07 11:11:57;;;;;;;5.30;1.48;;;;;;;19.06;46.49;100939.28;5032131;28;20030;-66
2022/01/07 11:14:37;;;;;;;5.78;1.30;;;;;;;19.02;46.31;100938.69;5032482;28;20033;-66
2022/01/07 11:17:04;;;;;;;4.72;1.45;;;;;;;18.98;46.25;100942.56;5031525;28;20083;-66
2022/01/07 11:19:39;;;;;;;4.90;1.15;;;;;;;18.97;46.77;100950.63;5031907;28;20033;-64
2022/01/07 11:22:07;;;;;;;4.15;1.50;;;;;;;18.98;47.01;100957.59;5032349;28;20037;-66
2022/01/07 11:24:33;;;;;;;6.25;1.33;;;;;;;18.97;46.90;100953.25;5030954;28;20033;-67
2022/01/07 11:27:06;;;;;;;4.82;1.40;;;;;;;18.97;47.04;100950.63;5035182;28;20095;-68
2022/01/07 11:29:35;;;;;;;7.10;1.67;;;;;;;18.97;46.83;100948.81;5035476;28;20068;-66
2022/01/07 11:32:25;;;;;;;7.13;1.73;;;;;;;18.96;47.42;100947.16;5035205;28;20024;-69